Peshawar International Airport
OPPS : now visible

Airfield :











YOU CAN JOIN US ON...

 
LOGIN :

Register | Disclaimer

   EN    FR    IT 

 









Legend :    VFR   Marginal VFR   IFR   Intensive IFR   Very Intensive IFR
Visi :
Ceiling :
>= 8 km
>= 3000ft
5 to 8 km
1000 to 3000 ft
1500m to 5 km
500 to 1000 ft
800 to 1500m
200 to 500 ft
< 800m
< 200 ft
Symbols :   Thunderstorms  Fog  Heavy snow  Heavy precipitations  Wind > 20 kt






- Airport Elevation : 1158 ft
- IATA code : PEW


OPPS - Peshawar International

CURRENT METAR :
  • 300100Z 05008KT 5000 HZ SCT040 BKN100 26/16 Q1006

EXPIRED METARs :
  • 300030Z 23008KT 5000 HZ SCT040 SCT100 25/16 Q1005
  • 300000Z 23008KT 5000 HZ SCT040 SCT100 25/16 Q1005
  • 292300Z 23010KT 5000 VCTS SCT040 SCT100 26/17 Q1004

TAF TAF OPPS
Valid from the 30 at 00:00 until the 31 at 06:00 UTC


292100Z 3000/3106 21015G25KT 4000 TSRA FEW030TCU/CB SCT040 BKN100
TEMPO 3003/3007 21010G20KT 5000 HZ FEW030TCU SCT040 SCT100
BECMG 3007/3009 21015G30KT 4000 -TSRA SCT040 BKN100
TEMPO 3102/3106 21015KT 5000 HZ FEW030TCU SCT040 SCT100
OPLR FIR / Asia



MET'MAP, your aeronautical weather chart ! - Copyright ORBIFLY December 2007 - Disclaimer

ORBIFLY MET'MAP TEAM :

Programming & Development : Alexandra Zaïnal
Concept & original design : Baudouin d'Aumeries
Assistance for programming : Marc-Olivier Méhu
Technical & hardware support : Manuel Goepfert

Contact : metmap@orbifly.com




SOURCES & CREDITS :

   NOAA       Earth
Advisory